Terminal Aerodrome Forecast
Issued by NWS

Home | Current Version | Previous Version | Text Only | Print | Product List | Glossary On
Versions: 1 2 3 4 5 6 7 8 9 10 11 12
000
FTUS42 KMLB 291700
TAFLEE
TAF
KLEE 291721Z 2918/3018 21006KT P6SM VCTS SCT035CB BKN070
      TEMPO 2918/2921 4SM TSRA BKN030CB BKN050
     FM292300 22005KT P6SM VCSH SCT035 BKN080
     FM300100 19004KT P6SM SCT060 BKN200
     FM300400 00000KT P6SM SCT250=

USA.gov is the U.S. government's official web portal to all federal, state and local government web resources and services.